Aviation Digital Data Service (ADDS)

Output produced by METARs form (0703 UTC 25 September 2018)
found at http://www.aviationweather.gov/metar/data/
 
METAR text: KPWA 250653Z AUTO 16010KT 10SM CLR 20/19 A2987 RMK AO2 SLP101 T02000194
Conditions at: KPWA (OKLA CITY/WILEY , OK, US) observed 0653 UTC 25 September 2018
Temperature: 20.0°C (68°F)
Dewpoint: 19.4°C (67°F) [RH = 96%]
Pressure (altimeter): 29.87 inches Hg (1011.6 mb)
[Sea-level pressure: 1010.1 mb]
Winds: from the SSE (160 degrees) at 12 MPH (10 knots; 5.1 m/s)
Visibility: 10 or more miles (16+ km)
Ceiling: at least 12,000 feet AGL
Clouds: sky clear below 12,000 feet AGL
Weather: automated observation with no human augmentation;
there may or may not be significant weather present at this time